Time;durP1;ratioP1;P1;durP2;ratioP2;P2;SDS_P1;SDS_P2;PMS_P1;PMS_P2;Temp;Humidity;BMP_temperature;BMP_pressure;BME280_temperature;BME280_humidity;BME280_pressure;Samples;Min_cycle;Max_cycle;Signal;HPM_P1;HPM_P2
2021/08/14 00:01:31;;;;;;;8.70;5.25;;;;;;;;;;5005516;28;20022;-63
2021/08/14 00:03:57;;;;;;;6.07;4.30;;;;;;;;;;4999752;28;20027;-63
2021/08/14 00:06:23;;;;;;;6.60;4.63;;;;;;;;;;4999230;28;20042;-63
2021/08/14 00:08:49;;;;;;;6.75;4.57;;;;;;;;;;4997357;28;20090;-63
2021/08/14 00:11:15;;;;;;;8.68;5.18;;;;;;;;;;5012005;28;20026;-63
2021/08/14 00:13:41;;;;;;;10.48;5.57;;;;;;;;;;4998909;28;20042;-63
2021/08/14 00:16:07;;;;;;;8.18;5.25;;;;;;;;;;5008329;28;20109;-63
2021/08/14 00:18:33;;;;;;;7.53;5.05;;;;;;;;;;5002272;28;20030;-63
2021/08/14 00:20:59;;;;;;;6.07;4.45;;;;;;;;;;5002314;28;20049;-63
2021/08/14 00:23:25;;;;;;;8.23;4.38;;;;;;;;;;5014270;28;20053;-63
2021/08/14 00:25:51;;;;;;;7.50;4.28;;;;;;;;;;5002767;28;20132;-63
2021/08/14 00:28:17;;;;;;;6.72;4.63;;;;;;;;;;5007557;28;20026;-63
2021/08/14 00:30:43;;;;;;;7.95;4.55;;;;;;;;;;5006475;28;20100;-63
2021/08/14 00:33:09;;;;;;;7.10;4.25;;;;;;;;;;5007633;28;20030;-63
2021/08/14 00:35:37;;;;;;;7.50;4.30;;;;;;;;;;5006167;28;20117;-63
2021/08/14 00:38:03;;;;;;;7.82;4.18;;;;;;;;;;5006536;28;20030;-63
2021/08/14 00:40:29;;;;;;;6.03;3.72;;;;;;;;;;5008294;28;20029;-63
2021/08/14 00:42:55;;;;;;;7.22;3.67;;;;;;;;;;5009672;28;20061;-63
2021/08/14 00:45:21;;;;;;;6.13;3.58;;;;;;;;;;5012688;28;20340;-63
2021/08/14 00:47:48;;;;;;;6.70;3.85;;;;;;;;;;5002889;28;20604;-63
2021/08/14 00:50:14;;;;;;;6.93;3.92;;;;;;;;;;5012992;28;20030;-63
2021/08/14 00:52:40;;;;;;;8.05;3.70;;;;;;;;;;5010189;28;20057;-63
2021/08/14 00:55:06;;;;;;;8.45;3.80;;;;;;;;;;5009515;28;20106;-63
2021/08/14 00:57:33;;;;;;;7.93;3.33;;;;;;;;;;5003174;28;20115;-63
2021/08/14 00:59:59;;;;;;;7.47;3.72;;;;;;;;;;5011778;28;20450;-63
2021/08/14 01:02:25;;;;;;;5.38;3.00;;;;;;;;;;5003882;28;20031;-63
2021/08/14 01:04:52;;;;;;;5.78;3.88;;;;;;;;;;5000736;28;20379;-63
2021/08/14 01:07:18;;;;;;;8.85;3.75;;;;;;;;;;5005211;28;20110;-63
2021/08/14 01:09:48;;;;;;;4.88;3.28;;;;;;;;;;5006634;28;20084;-63
2021/08/14 01:12:16;;;;;;;11.52;4.15;;;;;;;;;;5012286;28;20037;-63
2021/08/14 01:14:43;;;;;;;8.07;4.05;;;;;;;;;;5005393;28;20049;-63
2021/08/14 01:17:09;;;;;;;6.68;3.80;;;;;;;;;;5005787;28;20084;-63
2021/08/14 01:19:35;;;;;;;6.65;3.67;;;;;;;;;;5007817;28;20032;-63
2021/08/14 01:22:03;;;;;;;6.70;3.88;;;;;;;;;;5016280;28;20113;-63
2021/08/14 01:24:29;;;;;;;15.00;4.80;;;;;;;;;;5009221;28;20049;-63
2021/08/14 01:26:58;;;;;;;6.15;3.90;;;;;;;;;;5008217;28;20109;-63
2021/08/14 01:29:24;;;;;;;6.07;3.90;;;;;;;;;;4999507;28;20450;-63
2021/08/14 01:31:50;;;;;;;6.80;4.35;;;;;;;;;;4996072;28;20052;-63
2021/08/14 01:34:18;;;;;;;9.65;4.57;;;;;;;;;;5007914;28;20105;-63
2021/08/14 01:36:46;;;;;;;7.28;3.97;;;;;;;;;;5007687;28;20497;-63
2021/08/14 01:39:14;;;;;;;8.23;4.18;;;;;;;;;;5003606;28;20585;-63
2021/08/14 01:41:52;;;;;;;8.00;4.38;;;;;;;;;;5012964;28;20436;-63
2021/08/14 01:44:18;;;;;;;5.78;3.80;;;;;;;;;;5007324;28;20029;-63
2021/08/14 01:46:44;;;;;;;6.38;4.13;;;;;;;;;;5006504;28;20034;-63
2021/08/14 01:49:10;;;;;;;6.57;3.90;;;;;;;;;;5008166;28;20386;-63
2021/08/14 01:51:36;;;;;;;6.15;4.05;;;;;;;;;;5000996;28;20112;-63
2021/08/14 01:54:06;;;;;;;5.55;3.97;;;;;;;;;;5025002;28;20020;-63
2021/08/14 01:56:39;;;;;;;7.97;3.72;;;;;;;;;;5000457;28;20053;-63
2021/08/14 01:59:06;;;;;;;6.63;3.97;;;;;;;;;;5010347;28;20018;-63
2021/08/14 02:01:32;;;;;;;6.22;3.75;;;;;;;;;;5002354;28;20566;-63
2021/08/14 02:03:58;;;;;;;5.57;3.38;;;;;;;;;;5011946;28;20026;-63
2021/08/14 02:06:26;;;;;;;7.60;4.38;;;;;;;;;;5003625;28;20041;-63
2021/08/14 02:08:53;;;;;;;7.93;4.03;;;;;;;;;;5001203;28;20444;-63
2021/08/14 02:11:20;;;;;;;8.02;3.75;;;;;;;;;;5012049;28;20393;-63
2021/08/14 02:13:48;;;;;;;5.45;3.70;;;;;;;;;;5011645;28;20437;-63
2021/08/14 02:16:14;;;;;;;7.28;4.70;;;;;;;;;;5000140;28;20320;-63
2021/08/14 02:18:40;;;;;;;6.78;4.53;;;;;;;;;;5007121;28;20104;-63
2021/08/14 02:21:08;;;;;;;5.90;3.35;;;;;;;;;;5004884;28;20034;-63
2021/08/14 02:23:34;;;;;;;7.88;3.90;;;;;;;;;;5007272;28;20026;-63
2021/08/14 02:26:00;;;;;;;6.80;3.85;;;;;;;;;;5011184;28;20413;-63
2021/08/14 02:28:26;;;;;;;7.20;3.60;;;;;;;;;;4998834;28;20088;-63
2021/08/14 02:30:52;;;;;;;3.83;3.08;;;;;;;;;;5000086;28;20072;-63
2021/08/14 02:33:18;;;;;;;7.68;3.78;;;;;;;;;;4997853;28;20422;-63
2021/08/14 02:35:44;;;;;;;5.88;3.42;;;;;;;;;;5005322;28;20033;-63
2021/08/14 02:38:10;;;;;;;4.72;3.20;;;;;;;;;;4995157;28;20022;-63
2021/08/14 02:40:36;;;;;;;10.18;4.38;;;;;;;;;;5009446;28;20099;-63
2021/08/14 02:43:03;;;;;;;6.53;4.10;;;;;;;;;;5009186;28;20022;-63
2021/08/14 02:45:29;;;;;;;5.80;3.42;;;;;;;;;;4999372;28;20026;-63
2021/08/14 02:47:56;;;;;;;6.63;3.70;;;;;;;;;;5000173;28;20120;-63
2021/08/14 02:50:22;;;;;;;6.88;3.70;;;;;;;;;;5003179;28;20390;-63
2021/08/14 02:52:48;;;;;;;5.32;3.47;;;;;;;;;;4996913;28;20110;-63
2021/08/14 02:55:14;;;;;;;5.45;3.50;;;;;;;;;;5008093;28;20037;-63
2021/08/14 02:57:40;;;;;;;7.68;4.22;;;;;;;;;;5003188;28;20034;-63
2021/08/14 03:00:07;;;;;;;10.10;4.03;;;;;;;;;;5005440;28;20122;-63
2021/08/14 03:02:33;;;;;;;4.00;2.83;;;;;;;;;;4996679;28;20031;-63
2021/08/14 03:04:59;;;;;;;7.32;3.90;;;;;;;;;;4998538;28;20432;-63
2021/08/14 03:07:25;;;;;;;5.78;3.70;;;;;;;;;;5002858;28;20113;-63
2021/08/14 03:09:51;;;;;;;7.47;3.83;;;;;;;;;;5004876;28;20093;-63
2021/08/14 03:12:17;;;;;;;6.82;3.40;;;;;;;;;;5003869;28;20034;-63
2021/08/14 03:14:43;;;;;;;8.25;3.30;;;;;;;;;;5001183;28;20066;-63
2021/08/14 03:17:09;;;;;;;9.45;4.13;;;;;;;;;;5008972;28;20030;-63
2021/08/14 03:19:35;;;;;;;11.80;4.75;;;;;;;;;;4998740;28;20165;-63
2021/08/14 03:22:01;;;;;;;8.25;3.30;;;;;;;;;;5010890;28;20029;-63
2021/08/14 03:24:27;;;;;;;8.52;4.03;;;;;;;;;;5004628;28;20486;-63
2021/08/14 03:26:53;;;;;;;7.30;3.38;;;;;;;;;;5010190;28;20118;-63
2021/08/14 03:29:19;;;;;;;6.53;3.22;;;;;;;;;;5003765;28;20105;-63
2021/08/14 03:31:45;;;;;;;8.00;3.75;;;;;;;;;;5005655;28;20033;-62
2021/08/14 03:34:10;;;;;;;5.20;3.58;;;;;;;;;;5001735;28;20026;-62
2021/08/14 03:36:36;;;;;;;7.88;3.60;;;;;;;;;;5012139;28;20038;-63
2021/08/14 03:39:03;;;;;;;8.27;3.38;;;;;;;;;;5005663;28;20609;-63
2021/08/14 03:41:29;;;;;;;6.05;3.33;;;;;;;;;;5016791;28;20034;-63
2021/08/14 03:43:54;;;;;;;7.55;3.70;;;;;;;;;;5010859;28;20084;-63
2021/08/14 03:46:20;;;;;;;6.40;3.33;;;;;;;;;;5004298;28;20045;-63
2021/08/14 03:48:46;;;;;;;7.15;3.42;;;;;;;;;;4998705;28;20118;-63
2021/08/14 03:51:12;;;;;;;5.57;3.70;;;;;;;;;;5004235;28;20359;-63
2021/08/14 03:53:38;;;;;;;7.72;4.50;;;;;;;;;;5010001;28;20034;-63
2021/08/14 03:56:04;;;;;;;6.00;3.63;;;;;;;;;;5006989;28;20034;-63
2021/08/14 03:58:34;;;;;;;8.23;3.65;;;;;;;;;;5005427;28;20100;-63
2021/08/14 04:01:00;;;;;;;6.40;3.83;;;;;;;;;;5002615;28;20030;-63
2021/08/14 04:03:30;;;;;;;6.70;4.00;;;;;;;;;;5006844;28;20034;-63
2021/08/14 04:05:59;;;;;;;6.32;3.33;;;;;;;;;;5008759;28;20054;-63
2021/08/14 04:08:25;;;;;;;7.10;4.00;;;;;;;;;;4997934;28;20117;-63
2021/08/14 04:10:51;;;;;;;7.28;3.80;;;;;;;;;;5008295;28;20050;-63
2021/08/14 04:13:17;;;;;;;6.28;3.53;;;;;;;;;;5004616;28;20041;-63
2021/08/14 04:15:43;;;;;;;5.25;3.30;;;;;;;;;;5005839;28;20477;-63
2021/08/14 04:18:09;;;;;;;6.18;4.05;;;;;;;;;;5004908;28;20121;-63
2021/08/14 04:20:35;;;;;;;9.30;4.03;;;;;;;;;;5008044;28;20026;-63
2021/08/14 04:23:01;;;;;;;6.70;3.63;;;;;;;;;;5008957;28;20037;-63
2021/08/14 04:25:27;;;;;;;9.55;4.40;;;;;;;;;;5006734;28;20033;-63
2021/08/14 04:27:53;;;;;;;7.32;3.22;;;;;;;;;;5004570;28;20072;-63
2021/08/14 04:30:19;;;;;;;7.30;3.97;;;;;;;;;;5001367;28;20030;-63
2021/08/14 04:32:45;;;;;;;5.55;3.83;;;;;;;;;;5002691;28;20423;-63
2021/08/14 04:35:12;;;;;;;8.98;4.22;;;;;;;;;;5005668;28;20053;-63
2021/08/14 04:37:39;;;;;;;8.07;3.78;;;;;;;;;;5002642;28;20454;-63
2021/08/14 04:40:06;;;;;;;8.02;3.78;;;;;;;;;;5003733;28;20117;-63
2021/08/14 04:42:32;;;;;;;6.78;3.85;;;;;;;;;;5008500;28;20462;-63
2021/08/14 04:44:58;;;;;;;6.00;3.78;;;;;;;;;;5002898;28;20113;-63
2021/08/14 04:47:24;;;;;;;8.60;4.60;;;;;;;;;;5002456;28;20033;-63
2021/08/14 04:49:50;;;;;;;7.05;3.85;;;;;;;;;;5003361;28;20058;-63
2021/08/14 04:52:16;;;;;;;28.35;4.50;;;;;;;;;;5002468;28;20034;-63
2021/08/14 04:54:42;;;;;;;8.20;3.83;;;;;;;;;;5011566;28;20513;-63
2021/08/14 04:57:08;;;;;;;7.13;4.35;;;;;;;;;;5000241;28;20057;-63
2021/08/14 04:59:34;;;;;;;7.85;4.20;;;;;;;;;;5001481;28;20479;-63
2021/08/14 05:02:02;;;;;;;11.98;4.15;;;;;;;;;;5008431;28;20033;-63
2021/08/14 05:04:28;;;;;;;11.48;4.18;;;;;;;;;;5011396;28;20018;-63
2021/08/14 05:06:54;;;;;;;12.00;4.22;;;;;;;;;;5013967;28;20033;-63
2021/08/14 05:09:20;;;;;;;7.80;4.03;;;;;;;;;;5002263;28;20093;-63
2021/08/14 05:11:46;;;;;;;7.60;4.05;;;;;;;;;;4999765;28;20105;-63
2021/08/14 05:14:12;;;;;;;7.03;4.22;;;;;;;;;;4998053;28;20030;-63
2021/08/14 05:16:38;;;;;;;12.45;4.30;;;;;;;;;;5002929;28;20037;-63
2021/08/14 05:19:04;;;;;;;7.25;3.75;;;;;;;;;;5010334;28;20367;-63
2021/08/14 05:21:30;;;;;;;8.57;3.80;;;;;;;;;;5010535;28;20026;-63
2021/08/14 05:23:57;;;;;;;8.30;3.92;;;;;;;;;;5006859;28;20018;-63
2021/08/14 05:26:23;;;;;;;8.75;4.18;;;;;;;;;;5008039;28;20077;-63
2021/08/14 05:28:49;;;;;;;6.07;4.00;;;;;;;;;;5009948;28;20476;-63
2021/08/14 05:31:15;;;;;;;12.82;4.70;;;;;;;;;;5004080;28;20113;-63
2021/08/14 05:33:41;;;;;;;9.70;4.75;;;;;;;;;;5019413;28;20111;-63
2021/08/14 05:36:08;;;;;;;5.57;3.67;;;;;;;;;;5011081;28;20033;-63
2021/08/14 05:38:35;;;;;;;8.15;4.13;;;;;;;;;;5010228;28;20470;-62
2021/08/14 05:41:01;;;;;;;7.68;3.80;;;;;;;;;;5004377;28;20470;-63
2021/08/14 05:43:27;;;;;;;6.88;3.70;;;;;;;;;;5009816;28;20030;-63
2021/08/14 05:45:53;;;;;;;8.23;3.72;;;;;;;;;;5000214;28;20474;-63
2021/08/14 05:48:19;;;;;;;7.93;3.90;;;;;;;;;;5007428;28;20033;-63
2021/08/14 05:50:46;;;;;;;7.55;3.65;;;;;;;;;;5000130;28;20549;-63
2021/08/14 05:53:12;;;;;;;8.40;4.03;;;;;;;;;;5010445;28;20087;-63
2021/08/14 05:55:38;;;;;;;11.85;4.05;;;;;;;;;;4999908;28;20532;-63
2021/08/14 05:58:04;;;;;;;7.07;3.72;;;;;;;;;;5005762;28;20026;-63
2021/08/14 06:00:30;;;;;;;7.80;3.97;;;;;;;;;;5012044;28;20152;-62
2021/08/14 06:02:56;;;;;;;8.82;4.32;;;;;;;;;;5000345;28;20034;-63
2021/08/14 06:05:22;;;;;;;13.27;3.85;;;;;;;;;;5011332;28;20787;-63
2021/08/14 06:07:48;;;;;;;10.30;3.75;;;;;;;;;;5008443;28;20056;-63
2021/08/14 06:10:15;;;;;;;8.73;3.83;;;;;;;;;;5020132;28;20125;-63
2021/08/14 06:12:41;;;;;;;5.68;3.28;;;;;;;;;;5007678;28;20037;-63
2021/08/14 06:15:07;;;;;;;10.02;4.50;;;;;;;;;;5006317;28;21618;-63
2021/08/14 06:17:33;;;;;;;7.28;3.28;;;;;;;;;;5007490;28;20117;-63
2021/08/14 06:20:00;;;;;;;6.70;3.47;;;;;;;;;;5008005;28;20034;-63
2021/08/14 06:22:26;;;;;;;9.35;3.80;;;;;;;;;;5007233;28;20477;-63
2021/08/14 06:24:53;;;;;;;8.70;3.05;;;;;;;;;;5006089;28;20041;-63
2021/08/14 06:27:19;;;;;;;7.45;4.00;;;;;;;;;;5004377;28;20030;-63
2021/08/14 06:29:45;;;;;;;7.85;3.90;;;;;;;;;;5005306;28;20532;-63
2021/08/14 06:32:11;;;;;;;6.30;2.60;;;;;;;;;;5007864;28;20053;-63
2021/08/14 06:34:38;;;;;;;7.90;3.28;;;;;;;;;;5007696;28;20083;-63
2021/08/14 06:37:04;;;;;;;8.27;3.55;;;;;;;;;;5006820;28;20850;-63
2021/08/14 06:39:30;;;;;;;8.23;2.95;;;;;;;;;;5006402;28;20030;-63
2021/08/14 06:41:56;;;;;;;6.53;3.22;;;;;;;;;;5006285;28;21605;-63
2021/08/14 06:44:22;;;;;;;8.00;2.97;;;;;;;;;;5007367;28;20367;-63
2021/08/14 06:46:48;;;;;;;6.72;3.13;;;;;;;;;;5005272;28;20140;-63
2021/08/14 06:49:14;;;;;;;11.25;3.40;;;;;;;;;;5006977;28;20516;-63
2021/08/14 06:51:40;;;;;;;7.78;3.45;;;;;;;;;;5007610;28;20132;-62
2021/08/14 06:54:06;;;;;;;9.35;3.45;;;;;;;;;;5005612;28;20060;-63
2021/08/14 06:56:32;;;;;;;7.88;2.95;;;;;;;;;;5006260;28;20179;-63
2021/08/14 06:58:58;;;;;;;6.82;2.80;;;;;;;;;;5006699;28;20091;-63
2021/08/14 07:01:24;;;;;;;6.45;3.05;;;;;;;;;;5007113;28;20513;-63
2021/08/14 07:03:50;;;;;;;8.00;3.08;;;;;;;;;;5007860;28;20029;-63
2021/08/14 07:06:20;;;;;;;8.13;3.22;;;;;;;;;;5005885;28;20034;-63
2021/08/14 07:08:46;;;;;;;7.60;3.30;;;;;;;;;;5003439;28;20045;-63
2021/08/14 07:11:12;;;;;;;9.63;3.03;;;;;;;;;;5003663;28;20034;-63
2021/08/14 07:13:38;;;;;;;7.65;3.03;;;;;;;;;;5000335;28;20121;-63
2021/08/14 07:16:05;;;;;;;8.27;2.90;;;;;;;;;;5008698;28;20258;-63
2021/08/14 07:18:31;;;;;;;9.05;2.70;;;;;;;;;;5009066;28;20389;-63
2021/08/14 07:20:57;;;;;;;12.27;3.30;;;;;;;;;;5003548;28;20470;-63
2021/08/14 07:23:23;;;;;;;8.63;2.63;;;;;;;;;;5007195;28;20031;-63
2021/08/14 07:25:51;;;;;;;8.10;3.03;;;;;;;;;;5012631;28;20050;-63
2021/08/14 07:28:17;;;;;;;10.57;2.75;;;;;;;;;;5004688;28;20030;-63
2021/08/14 07:30:43;;;;;;;13.98;3.45;;;;;;;;;;5009829;28;20049;-62
2021/08/14 07:33:09;;;;;;;8.85;2.80;;;;;;;;;;5015825;28;20034;-62
2021/08/14 07:35:35;;;;;;;9.48;2.40;;;;;;;;;;5013789;28;20033;-62
2021/08/14 07:38:01;;;;;;;7.53;2.55;;;;;;;;;;5002597;28;20038;-62
2021/08/14 07:40:27;;;;;;;7.60;2.63;;;;;;;;;;5005742;28;20030;-62
2021/08/14 07:42:54;;;;;;;8.50;2.70;;;;;;;;;;5005868;28;20037;-62
2021/08/14 07:45:20;;;;;;;8.57;2.88;;;;;;;;;;5009936;28;20077;-62
2021/08/14 07:47:48;;;;;;;7.60;2.25;;;;;;;;;;5012620;28;20065;-62
2021/08/14 07:50:24;;;;;;;6.72;2.38;;;;;;;;;;5002589;28;20026;-62
2021/08/14 07:52:51;;;;;;;9.50;2.67;;;;;;;;;;5014540;28;20465;-62
2021/08/14 07:55:17;;;;;;;7.22;2.30;;;;;;;;;;5002424;28;20028;-62
2021/08/14 07:57:43;;;;;;;7.43;2.42;;;;;;;;;;5000386;28;20068;-62
2021/08/14 08:00:11;;;;;;;8.05;2.50;;;;;;;;;;5010478;28;20022;-62
2021/08/14 08:02:37;;;;;;;6.25;2.42;;;;;;;;;;5010585;28;20057;-62
2021/08/14 08:05:06;;;;;;;11.73;2.17;;;;;;;;;;5008742;28;20109;-62
2021/08/14 08:07:32;;;;;;;9.55;3.17;;;;;;;;;;5005336;28;20062;-62
2021/08/14 08:09:58;;;;;;;9.40;2.40;;;;;;;;;;5002101;28;20405;-62
2021/08/14 08:12:24;;;;;;;9.98;3.08;;;;;;;;;;5015159;28;20034;-62
2021/08/14 08:14:50;;;;;;;10.20;3.03;;;;;;;;;;5004782;28;20478;-62
2021/08/14 08:17:17;;;;;;;7.05;2.95;;;;;;;;;;5013433;28;20069;-61
2021/08/14 08:19:42;;;;;;;9.55;3.20;;;;;;;;;;5008723;28;20060;-62
2021/08/14 08:22:09;;;;;;;8.75;2.55;;;;;;;;;;5008104;28;20025;-61
2021/08/14 08:24:35;;;;;;;9.82;2.78;;;;;;;;;;5006556;28;20030;-62
2021/08/14 08:27:01;;;;;;;7.15;2.85;;;;;;;;;;5011829;28;20485;-62
2021/08/14 08:29:27;;;;;;;6.95;2.58;;;;;;;;;;5008230;28;20033;-62
2021/08/14 08:31:53;;;;;;;11.20;2.63;;;;;;;;;;4999044;28;20022;-62
2021/08/14 08:34:23;;;;;;;8.13;2.72;;;;;;;;;;5009631;28;20033;-62
2021/08/14 08:36:49;;;;;;;6.53;2.20;;;;;;;;;;5006073;28;20041;-62
2021/08/14 08:39:15;;;;;;;4.75;2.30;;;;;;;;;;5008434;28;20105;-62
2021/08/14 08:41:41;;;;;;;7.60;2.92;;;;;;;;;;5013646;28;20040;-62
2021/08/14 08:44:07;;;;;;;8.88;2.88;;;;;;;;;;5011585;28;20528;-62
2021/08/14 08:46:34;;;;;;;7.00;2.60;;;;;;;;;;4999719;28;20088;-62
2021/08/14 08:49:00;;;;;;;6.15;2.15;;;;;;;;;;5010729;28;20032;-62
2021/08/14 08:51:30;;;;;;;11.05;3.13;;;;;;;;;;5002802;28;20041;-62
2021/08/14 08:53:56;;;;;;;14.20;3.08;;;;;;;;;;5006280;28;20049;-62
2021/08/14 08:56:22;;;;;;;8.63;2.85;;;;;;;;;;5014440;28;20083;-62
2021/08/14 08:58:51;;;;;;;7.65;2.65;;;;;;;;;;5005893;28;20026;-62
2021/08/14 09:01:17;;;;;;;7.88;2.42;;;;;;;;;;5005810;28;20064;-62
2021/08/14 09:03:43;;;;;;;8.57;2.97;;;;;;;;;;5011035;28;20550;-62
2021/08/14 09:06:09;;;;;;;11.50;2.63;;;;;;;;;;5006135;28;20751;-62
2021/08/14 09:08:36;;;;;;;12.18;2.88;;;;;;;;;;5005491;28;20251;-62
2021/08/14 09:11:09;;;;;;;6.85;2.92;;;;;;;;;;5008396;28;20044;-62
2021/08/14 09:13:35;;;;;;;13.00;4.05;;;;;;;;;;5010076;28;20038;-62
2021/08/14 09:16:37;;;;;;;8.85;2.65;;;;;;;;;;5011464;28;20037;-62
2021/08/14 09:19:03;;;;;;;7.10;2.55;;;;;;;;;;4985748;28;20482;-61
2021/08/14 09:21:32;;;;;;;6.32;3.00;;;;;;;;;;5007035;28;20061;-62
2021/08/14 09:24:00;;;;;;;10.25;2.58;;;;;;;;;;5010162;28;20022;-60
2021/08/14 09:26:26;;;;;;;5.05;2.13;;;;;;;;;;5010040;28;20120;-61
2021/08/14 09:29:03;;;;;;;6.28;2.28;;;;;;;;;;5003879;28;20490;-60
2021/08/14 09:31:46;;;;;;;17.70;6.18;;;;;;;;;;4996620;28;20097;-61
2021/08/14 09:34:15;;;;;;;26.38;7.13;;;;;;;;;;5010306;28;20489;-62
2021/08/14 09:36:44;;;;;;;11.68;4.18;;;;;;;;;;5011718;28;20359;-62
2021/08/14 09:39:10;;;;;;;10.07;2.42;;;;;;;;;;5009700;28;20118;-62
2021/08/14 09:41:36;;;;;;;7.85;3.50;;;;;;;;;;5003985;28;20108;-62
2021/08/14 09:44:03;;;;;;;5.22;1.92;;;;;;;;;;5006476;28;20056;-62
2021/08/14 09:46:42;;;;;;;10.45;2.40;;;;;;;;;;5003893;28;20121;-62
2021/08/14 09:49:11;;;;;;;5.28;1.98;;;;;;;;;;5003584;28;20057;-62
2021/08/14 09:51:37;;;;;;;9.02;2.50;;;;;;;;;;5002599;28;20112;-63
2021/08/14 09:54:06;;;;;;;9.23;2.63;;;;;;;;;;5019799;28;20061;-63
2021/08/14 09:56:36;;;;;;;9.77;2.67;;;;;;;;;;5005007;28;20038;-63
2021/08/14 09:59:03;;;;;;;12.52;2.65;;;;;;;;;;5008974;28;20014;-63
2021/08/14 10:01:30;;;;;;;5.60;2.20;;;;;;;;;;5026555;28;20048;-63
2021/08/14 10:03:57;;;;;;;7.07;2.85;;;;;;;;;;5008057;28;20104;-63
2021/08/14 10:06:23;;;;;;;8.32;2.22;;;;;;;;;;5009515;28;20116;-63
2021/08/14 10:08:49;;;;;;;6.03;2.15;;;;;;;;;;5003630;28;20050;-63
2021/08/14 10:11:16;;;;;;;11.93;3.53;;;;;;;;;;5009943;28;20033;-63
2021/08/14 10:13:44;;;;;;;5.57;2.15;;;;;;;;;;5006687;28;20017;-63
2021/08/14 10:16:11;;;;;;;4.95;2.10;;;;;;;;;;5006641;28;20489;-63
2021/08/14 10:18:39;;;;;;;5.22;2.25;;;;;;;;;;5003981;28;20027;-63
2021/08/14 10:21:05;;;;;;;6.13;2.13;;;;;;;;;;5006974;28;20071;-63
2021/08/14 10:23:31;;;;;;;7.22;2.40;;;;;;;;;;5009816;28;20030;-62
2021/08/14 10:26:00;;;;;;;6.88;2.42;;;;;;;;;;5002819;28;20026;-63
2021/08/14 10:28:42;;;;;;;4.65;2.20;;;;;;;;;;5001998;28;20084;-63
2021/08/14 10:31:08;;;;;;;7.18;2.33;;;;;;;;;;5002565;28;20058;-63
2021/08/14 10:33:35;;;;;;;4.55;2.33;;;;;;;;;;5006958;28;20034;-63
2021/08/14 10:36:21;;;;;;;6.20;2.60;;;;;;;;;;5003169;28;20516;-62
2021/08/14 10:38:50;;;;;;;8.63;2.63;;;;;;;;;;4998468;28;20053;-63
2021/08/14 10:41:17;;;;;;;6.13;2.45;;;;;;;;;;5007834;28;20021;-62
2021/08/14 10:43:52;;;;;;;4.97;2.08;;;;;;;;;;5006126;28;20034;-62
2021/08/14 10:46:37;;;;;;;5.10;1.77;;;;;;;;;;5015708;28;20026;-62
2021/08/14 10:49:03;;;;;;;4.20;1.80;;;;;;;;;;5006887;28;20038;-62
2021/08/14 10:51:48;;;;;;;5.80;1.92;;;;;;;;;;5011187;28;20117;-63
2021/08/14 10:54:30;;;;;;;9.05;1.98;;;;;;;;;;5012256;28;20029;-63
2021/08/14 10:56:56;;;;;;;5.25;1.65;;;;;;;;;;4998798;28;20030;-63
2021/08/14 10:59:38;;;;;;;6.47;1.90;;;;;;;;;;5012087;28;20105;-63
2021/08/14 11:02:06;;;;;;;8.27;2.35;;;;;;;;;;5009584;28;20026;-63
2021/08/14 11:04:43;;;;;;;10.57;2.05;;;;;;;;;;5002158;28;20108;-62
2021/08/14 11:07:18;;;;;;;5.68;2.33;;;;;;;;;;5010043;28;20022;-62
2021/08/14 11:09:45;;;;;;;4.60;1.63;;;;;;;;;;5002498;28;20112;-62
2021/08/14 11:12:11;;;;;;;5.40;2.35;;;;;;;;;;5008368;28;20036;-62
2021/08/14 11:14:37;;;;;;;5.85;1.80;;;;;;;;;;5010391;28;20645;-63
2021/08/14 11:17:03;;;;;;;4.30;1.85;;;;;;;;;;5005295;28;20034;-63
2021/08/14 11:19:43;;;;;;;5.05;2.20;;;;;;;;;;5004557;28;20543;-63
2021/08/14 11:22:21;;;;;;;4.90;1.88;;;;;;;;;;5000018;28;20033;-63
2021/08/14 11:24:47;;;;;;;5.20;2.22;;;;;;;;;;5003603;28;20022;-62
2021/08/14 11:27:24;;;;;;;5.13;1.80;;;;;;;;;;4999295;28;20021;-62
2021/08/14 11:29:52;;;;;;;7.18;1.88;;;;;;;;;;5005955;28;20402;-63
2021/08/14 11:32:18;;;;;;;5.60;1.73;;;;;;;;;;4998500;28;20101;-63
2021/08/14 11:34:47;;;;;;;5.95;2.20;;;;;;;;;;5025332;28;20032;-62
2021/08/14 11:37:13;;;;;;;7.85;2.10;;;;;;;;;;5002663;28;20022;-63
2021/08/14 11:39:39;;;;;;;4.90;2.05;;;;;;;;;;5006194;28;20019;-63
2021/08/14 11:42:05;;;;;;;5.28;2.08;;;;;;;;;;5004597;28;20251;-63
2021/08/14 11:44:38;;;;;;;6.50;2.30;;;;;;;;;;5004414;28;20037;-63
2021/08/14 11:47:05;;;;;;;4.93;1.80;;;;;;;;;;5002486;28;20041;-63
2021/08/14 11:49:31;;;;;;;9.00;1.60;;;;;;;;;;5007132;28;20113;-63
2021/08/14 11:52:04;;;;;;;5.00;1.98;;;;;;;;;;5010536;28;20098;-63
2021/08/14 11:54:31;;;;;;;5.82;1.90;;;;;;;;;;5011508;28;20112;-63
2021/08/14 11:57:11;;;;;;;3.22;1.83;;;;;;;;;;5006585;28;20041;-63
2021/08/14 11:59:37;;;;;;;3.78;1.92;;;;;;;;;;5005794;28;20490;-63
2021/08/14 12:02:03;;;;;;;8.90;2.63;;;;;;;;;;5001022;28;20034;-63
2021/08/14 12:04:29;;;;;;;5.72;1.98;;;;;;;;;;4998077;28;20041;-63
2021/08/14 12:06:56;;;;;;;4.65;2.17;;;;;;;;;;4992681;28;20065;-63
2021/08/14 12:09:22;;;;;;;4.25;2.03;;;;;;;;;;5009318;28;20046;-63
2021/08/14 12:11:58;;;;;;;4.10;2.13;;;;;;;;;;5008699;28;20036;-62
2021/08/14 12:14:25;;;;;;;4.75;2.10;;;;;;;;;;5020822;28;20394;-62
2021/08/14 12:16:59;;;;;;;4.95;2.10;;;;;;;;;;5005389;28;20030;-62
2021/08/14 12:19:24;;;;;;;;;;;;;;;;;;5010055;28;20018;-62
2021/08/14 12:22:04;;;;;;;3.95;1.95;;;;;;;;;;5011601;28;19952;-62
2021/08/14 12:24:30;;;;;;;4.65;2.10;;;;;;;;;;5012361;28;20087;-62
2021/08/14 12:26:56;;;;;;;6.97;2.45;;;;;;;;;;5011288;28;20026;-61
2021/08/14 12:29:23;;;;;;;6.30;2.35;;;;;;;;;;5011515;28;20033;-61
2021/08/14 12:31:50;;;;;;;5.18;2.35;;;;;;;;;;5014654;28;20432;-61
2021/08/14 12:34:23;;;;;;;7.50;2.33;;;;;;;;;;5011588;28;20033;-61
2021/08/14 12:37:00;;;;;;;5.30;2.05;;;;;;;;;;5004710;28;20485;-61
2021/08/14 12:39:43;;;;;;;5.63;2.10;;;;;;;;;;5013382;28;20026;-61
2021/08/14 12:42:22;;;;;;;5.43;2.15;;;;;;;;;;5013675;28;20109;-60
2021/08/14 12:44:49;;;;;;;5.38;2.20;;;;;;;;;;5013018;28;20089;-60
2021/08/14 12:47:24;;;;;;;5.70;2.17;;;;;;;;;;5013320;28;20018;-61
2021/08/14 12:50:07;;;;;;;7.03;2.38;;;;;;;;;;5013237;28;20526;-60
2021/08/14 12:52:33;;;;;;;9.60;2.42;;;;;;;;;;5012491;28;20030;-61
2021/08/14 12:54:59;;;;;;;4.90;1.90;;;;;;;;;;5004783;28;20034;-61
2021/08/14 12:57:25;;;;;;;5.55;1.90;;;;;;;;;;5011169;28;20496;-61
2021/08/14 12:59:51;;;;;;;5.38;2.20;;;;;;;;;;5012580;28;20022;-61
2021/08/14 13:02:17;;;;;;;6.22;2.35;;;;;;;;;;5006679;28;20485;-60
2021/08/14 13:04:49;;;;;;;8.65;2.80;;;;;;;;;;5014277;28;20367;-60
2021/08/14 13:07:15;;;;;;;7.20;2.90;;;;;;;;;;5012083;28;20026;-61
2021/08/14 13:09:41;;;;;;;4.28;2.30;;;;;;;;;;5011716;28;20386;-61
2021/08/14 13:12:08;;;;;;;6.32;1.90;;;;;;;;;;5012369;28;20036;-60
2021/08/14 13:14:33;;;;;;;8.15;2.75;;;;;;;;;;5001653;28;20061;-60
2021/08/14 13:17:02;;;;;;;4.03;2.20;;;;;;;;;;4999890;28;20038;-59
2021/08/14 13:19:28;;;;;;;4.70;2.10;;;;;;;;;;5008179;28;20060;-61
2021/08/14 13:21:56;;;;;;;7.20;1.90;;;;;;;;;;5005406;28;20014;-61
2021/08/14 13:24:22;;;;;;;7.13;2.67;;;;;;;;;;5009116;28;20088;-62
2021/08/14 13:26:48;;;;;;;6.00;1.60;;;;;;;;;;5013300;28;20034;-62
2021/08/14 13:29:15;;;;;;;4.22;2.03;;;;;;;;;;5012083;28;20136;-62
2021/08/14 13:31:42;;;;;;;4.80;1.90;;;;;;;;;;5004032;28;20512;-61
2021/08/14 13:34:08;;;;;;;4.93;2.03;;;;;;;;;;5012430;28;20509;-62
2021/08/14 13:36:34;;;;;;;8.30;2.88;;;;;;;;;;5012057;28;20030;-62
2021/08/14 13:39:01;;;;;;;5.65;2.25;;;;;;;;;;5012470;28;20036;-61
2021/08/14 13:41:27;;;;;;;5.22;2.22;;;;;;;;;;5012849;28;20046;-61
2021/08/14 13:43:53;;;;;;;4.78;1.90;;;;;;;;;;5027499;28;20054;-62
2021/08/14 13:46:19;;;;;;;5.97;2.15;;;;;;;;;;5008964;28;20057;-62
2021/08/14 13:48:45;;;;;;;5.85;2.30;;;;;;;;;;5011275;28;20038;-61
2021/08/14 13:51:11;;;;;;;5.22;2.03;;;;;;;;;;5010719;28;20030;-61
2021/08/14 13:53:38;;;;;;;4.63;2.08;;;;;;;;;;5011997;28;20037;-61
2021/08/14 13:56:04;;;;;;;6.95;1.80;;;;;;;;;;5006984;28;20030;-61
2021/08/14 13:58:30;;;;;;;5.43;2.03;;;;;;;;;;5009889;28;20589;-61
2021/08/14 14:00:56;;;;;;;6.90;2.10;;;;;;;;;;5004425;28;20038;-61
2021/08/14 14:03:22;;;;;;;5.40;2.45;;;;;;;;;;4999337;28;20534;-61
2021/08/14 14:05:48;;;;;;;6.03;2.17;;;;;;;;;;5006691;28;20029;-61
2021/08/14 14:08:14;;;;;;;5.13;2.28;;;;;;;;;;5001817;28;20080;-61
2021/08/14 14:10:40;;;;;;;3.65;1.80;;;;;;;;;;5007953;28;20046;-61
2021/08/14 14:13:06;;;;;;;4.25;2.00;;;;;;;;;;5014660;28;20034;-61
2021/08/14 14:15:32;;;;;;;5.47;2.17;;;;;;;;;;5009581;28;20042;-61
2021/08/14 14:17:59;;;;;;;3.95;1.80;;;;;;;;;;5010989;28;20049;-61
2021/08/14 14:20:25;;;;;;;3.25;1.52;;;;;;;;;;5009500;28;20469;-61
2021/08/14 14:22:51;;;;;;;6.50;2.03;;;;;;;;;;5009177;28;20080;-61
2021/08/14 14:25:18;;;;;;;3.92;1.90;;;;;;;;;;5005455;28;20033;-61
2021/08/14 14:27:46;;;;;;;3.90;1.80;;;;;;;;;;5008353;28;20493;-61
2021/08/14 14:30:12;;;;;;;4.55;1.95;;;;;;;;;;5011438;28;20041;-61
2021/08/14 14:32:38;;;;;;;5.32;1.58;;;;;;;;;;5010416;28;20036;-61
2021/08/14 14:35:05;;;;;;;8.48;1.85;;;;;;;;;;5010578;28;20033;-61
2021/08/14 14:37:31;;;;;;;3.72;1.77;;;;;;;;;;5011375;28;20026;-61
2021/08/14 14:39:56;;;;;;;3.67;1.50;;;;;;;;;;5003649;28;20073;-61
2021/08/14 14:42:22;;;;;;;3.63;1.73;;;;;;;;;;5010783;28;20351;-61
2021/08/14 14:44:48;;;;;;;6.53;2.22;;;;;;;;;;5012507;28;20105;-61